Página principal
METAR-TAF:

METAR-TAF

Aeroportos :

Damasco, Síria

Aeroporto Internacional de Damasco

latitude: 33-25N, longitude: 036-31E, altura: 608 m

Observação actual do tempo

O boletim foi feito há 4 horas e 22 minutos, às 19:00 UTC
Vento 6 kt de norte
Temperatura 7°C
Humidade 24%
Pressão 1024 hPa
Visibilidade 10 km ou mais
sem nuvens abaixo de 1500 metros e sem cumulonimbus

METAR: OSDI 121900Z 01006KT CAVOK 07/M12 Q1024

Hora: 01:22 (23:22 UTC)

Previsão

O boletim foi feito há 6 horas e 22 minutos, às 17:00 UTC
Previsão válida de 12 às 18 UTC a 13 às 24 UTC
Vento 3 kt com direcção variável
Visibilidade 10 km ou mais
sem nuvens abaixo de 1500 metros e sem cumulonimbus

TAF: OSDI 121700Z 1218/1324 VRB03KT CAVOK

Observações e previsões do tempo de mais de 4000 aeroportos (mensagens METAR e TAF).

As estações disponíveis são os pontos amarelos e vermelhos sobre o mapa.

Mova o rato sobre o mapa para ver o nome da estação.

Depois clique no ponto para visualizar as observações e previsões meteorológicas.

Para alterar o mapa : clique nos botões verdes com uma cruz preta para aumentar o zoom; no botão verde com uma pitada de zoom; ou nas setas verdes para mapas adjacentes.


METAR-TAF: